Time;durP1;ratioP1;P1;durP2;ratioP2;P2;SDS_P1;SDS_P2;PMS_P1;PMS_P2;Temp;Humidity;BMP_temperature;BMP_pressure;BME280_temperature;BME280_humidity;BME280_pressure;Samples;Min_cycle;Max_cycle;Signal;HPM_P1;HPM_P2
2020/12/09 00:00:16;;;;;;;17.71;8.87;;;;;;;-6.46;63.07;100396.99;367311;107;1963840;-76
2020/12/09 00:01:22;;;;;;;17.32;8.11;;;;;;;-6.46;63.04;100396.99;365268;109;1961992;-76
2020/12/09 00:02:28;;;;;;;16.02;7.47;;;;;;;-6.46;62.97;100400.47;342401;109;2218917;-76
2020/12/09 00:03:33;;;;;;;17.52;7.39;;;;;;;-6.47;62.89;100397.94;368152;109;1963908;-77
2020/12/09 00:04:38;;;;;;;16.51;9.24;;;;;;;-6.47;62.93;100396.16;367988;109;1962074;-76
2020/12/09 00:05:45;;;;;;;19.57;8.81;;;;;;;-6.46;62.83;100397.84;368279;109;1964039;-76
2020/12/09 00:06:51;;;;;;;16.90;8.18;;;;;;;-6.45;62.82;100399.56;367989;109;1961886;-76
2020/12/09 00:07:57;;;;;;;17.33;8.08;;;;;;;-6.46;62.81;100392.58;365932;109;1961977;-76
2020/12/09 00:09:06;;;;;;;14.08;7.42;;;;;;;-6.48;62.84;100390.99;358573;108;2194938;-76
2020/12/09 00:10:12;;;;;;;22.47;8.23;;;;;;;-6.45;62.70;100385.57;340921;107;2574031;-75
2020/12/09 00:11:18;;;;;;;16.98;8.44;;;;;;;-6.45;62.68;100391.67;363479;109;1962001;-75
2020/12/09 00:12:23;;;;;;;16.69;8.53;;;;;;;-6.45;62.60;100383.78;367563;109;1962004;-77
2020/12/09 00:13:29;;;;;;;18.82;8.15;;;;;;;-6.44;62.55;100382.84;363252;111;1961993;-76
2020/12/09 00:14:34;;;;;;;19.66;8.91;;;;;;;-6.47;62.45;100383.01;345261;108;2347875;-77
2020/12/09 00:15:39;;;;;;;18.84;8.02;;;;;;;-6.47;62.54;100380.38;328769;118;1960892;-77
2020/12/09 00:16:47;;;;;;;17.16;7.97;;;;;;;-6.46;62.45;100381.22;347864;115;1961962;-77
2020/12/09 00:17:53;;;;;;;16.91;8.66;;;;;;;-6.47;62.49;100390.05;324040;118;1961887;-77
2020/12/09 00:18:59;;;;;;;17.63;8.44;;;;;;;-6.48;62.44;100386.58;347148;115;1961845;-77
2020/12/09 00:20:05;;;;;;;17.92;8.77;;;;;;;-6.49;62.48;100384.86;316327;115;2646936;-77
2020/12/09 00:21:17;;;;;;;18.82;8.56;;;;;;;-6.49;62.57;100389.27;342393;115;1963940;-76
2020/12/09 00:22:26;;;;;;;21.06;10.36;;;;;;;-6.49;62.50;100387.48;352012;110;1960868;-74
2020/12/09 00:23:32;;;;;;;19.67;8.67;;;;;;;-6.51;62.40;100386.75;362605;110;1961968;-74
2020/12/09 00:24:38;;;;;;;18.72;8.83;;;;;;;-6.50;62.38;100388.43;348730;108;1962963;-75
2020/12/09 00:25:44;;;;;;;17.71;8.37;;;;;;;-6.51;62.46;100388.50;365798;108;1962010;-74
2020/12/09 00:26:49;;;;;;;16.48;8.09;;;;;;;-6.50;62.47;100391.06;368502;108;1963946;-75
2020/12/09 00:27:56;;;;;;;17.11;8.53;;;;;;;-6.50;62.44;100387.59;325431;108;2166335;-75
2020/12/09 00:29:01;;;;;;;18.41;8.09;;;;;;;-6.51;62.40;100392.00;365687;108;1961978;-75
2020/12/09 00:30:08;;;;;;;19.16;9.08;;;;;;;-6.53;62.39;100396.48;366343;108;1963956;-75
2020/12/09 00:31:25;;;;;;;16.18;8.08;;;;;;;-6.52;62.41;100397.33;326806;108;2129330;-75
2020/12/09 00:32:30;;;;;;;18.24;7.57;;;;;;;-6.52;62.47;100395.54;357059;113;1961955;-75
2020/12/09 00:33:48;;;;;;;15.88;7.94;;;;;;;-6.59;62.40;100383.63;336576;114;2397927;-75
2020/12/09 00:34:54;;;;;;;16.73;7.17;;;;;;;-6.47;62.40;100392.68;367570;108;1962179;-75
2020/12/09 00:35:59;;;;;;;14.94;7.99;;;;;;;-6.44;62.39;100395.98;349590;106;2350988;-74
2020/12/09 00:37:05;;;;;;;16.27;7.48;;;;;;;-6.40;62.23;100394.06;359272;106;1961976;-74
2020/12/09 00:38:10;;;;;;;16.62;7.91;;;;;;;-6.36;62.38;100395.59;366357;109;1961891;-74
2020/12/09 00:39:16;;;;;;;18.58;8.37;;;;;;;-6.30;62.25;100395.26;365916;108;1961929;-74
2020/12/09 00:40:22;;;;;;;25.25;8.46;;;;;;;-6.23;62.10;100394.02;337752;105;2040135;-74
2020/12/09 00:41:28;;;;;;;18.76;7.96;;;;;;;-6.19;61.78;100394.72;373738;107;1961994;-77
2020/12/09 00:42:35;;;;;;;17.99;8.68;;;;;;;-6.12;61.83;100392.59;367594;107;1961850;-75
2020/12/09 00:43:40;;;;;;;17.44;7.93;;;;;;;-6.06;61.89;100392.26;348996;107;1962025;-75
2020/12/09 00:44:45;;;;;;;19.03;7.80;;;;;;;-6.01;61.61;100385.81;375792;105;1961973;-75
2020/12/09 00:46:00;;;;;;;20.45;7.92;;;;;;;-5.93;61.76;100381.93;370394;108;1963055;-74
2020/12/09 00:47:06;;;;;;;18.21;8.15;;;;;;;-5.89;61.42;100384.28;369897;107;1962950;-76
2020/12/09 00:48:13;;;;;;;19.79;8.52;;;;;;;-5.83;61.31;100380.47;341101;107;1994816;-76
2020/12/09 00:49:18;;;;;;;17.12;7.94;;;;;;;-5.76;61.20;100379.20;373808;107;1961896;-76
2020/12/09 00:51:33;;;;;;;16.48;8.80;;;;;;;-5.69;60.85;100380.55;362982;107;1960832;-75
2020/12/09 00:52:42;;;;;;;16.74;7.57;;;;;;;-5.65;60.66;100383.88;339709;112;2357929;-73
2020/12/09 00:53:48;;;;;;;17.46;7.92;;;;;;;-5.63;60.29;100377.59;328763;110;1998427;-74
2020/12/09 00:54:56;;;;;;;16.52;7.76;;;;;;;-5.61;60.49;100378.36;335245;110;2839041;-74
2020/12/09 00:56:07;;;;;;;18.63;8.52;;;;;;;-5.59;60.43;100373.84;350499;112;1961993;-74
2020/12/09 00:57:13;;;;;;;16.66;7.62;;;;;;;-5.54;59.96;100373.59;345208;115;1961973;-74
2020/12/09 00:58:18;;;;;;;13.23;6.60;;;;;;;-5.50;60.30;100376.89;344368;112;1962982;-74
2020/12/09 00:59:24;;;;;;;15.34;7.68;;;;;;;-5.48;59.89;100382.92;339558;112;2322979;-74
2020/12/09 01:00:40;;;;;;;14.96;7.20;;;;;;;-5.46;59.72;100378.43;354763;112;1961967;-74
2020/12/09 01:01:47;;;;;;;16.03;8.17;;;;;;;-5.45;59.87;100367.83;342311;111;2322993;-75
2020/12/09 01:02:55;;;;;;;17.12;7.97;;;;;;;-5.39;59.86;100371.89;359274;111;1962010;-75
2020/12/09 01:04:01;;;;;;;18.27;7.73;;;;;;;-5.41;59.23;100363.22;313658;111;2222427;-75
2020/12/09 01:05:09;;;;;;;14.53;7.26;;;;;;;-5.41;59.09;100371.12;356779;111;1962007;-75
2020/12/09 01:06:14;;;;;;;14.83;7.52;;;;;;;-5.41;59.42;100376.38;323999;112;2018861;-75
2020/12/09 01:07:20;;;;;;;15.34;7.29;;;;;;;-5.43;59.39;100363.30;357240;113;1961911;-75
2020/12/09 01:08:26;;;;;;;17.89;7.04;;;;;;;-5.41;59.38;100361.43;355860;111;1964961;-75
2020/12/09 01:09:32;;;;;;;18.67;7.90;;;;;;;-5.39;59.22;100364.83;322896;113;2658025;-73
2020/12/09 01:10:38;;;;;;;15.24;7.88;;;;;;;-5.38;59.11;100358.62;355176;111;1965345;-74
2020/12/09 01:11:43;;;;;;;14.63;7.18;;;;;;;-5.40;58.95;100357.01;353687;112;1961996;-75
2020/12/09 01:12:48;;;;;;;15.24;6.32;;;;;;;-5.41;58.75;100352.69;355389;112;1960753;-74
2020/12/09 01:13:54;;;;;;;13.73;6.77;;;;;;;-5.42;58.97;100358.91;338061;113;2368957;-74
2020/12/09 01:14:59;;;;;;;16.56;7.57;;;;;;;-5.44;58.53;100355.50;340068;111;1961952;-74
2020/12/09 01:16:05;;;;;;;13.19;6.77;;;;;;;-5.45;58.81;100351.16;357499;111;1964945;-74
2020/12/09 01:17:10;;;;;;;19.34;7.41;;;;;;;-5.44;58.95;100352.87;355811;113;1961953;-74
2020/12/09 01:18:16;;;;;;;13.45;6.73;;;;;;;-5.47;58.55;100353.05;332171;112;2516018;-74
2020/12/09 01:19:22;;;;;;;15.44;7.86;;;;;;;-5.48;58.68;100351.33;355000;112;1962030;-74
2020/12/09 01:20:28;;;;;;;17.88;7.48;;;;;;;-5.49;58.81;100347.02;354944;112;1964133;-74
2020/12/09 01:21:44;;;;;;;15.86;7.55;;;;;;;-5.50;58.80;100342.66;331958;112;2503992;-74
2020/12/09 01:22:50;;;;;;;20.77;7.88;;;;;;;-5.53;58.79;100355.09;358376;110;1964998;-75
2020/12/09 01:23:57;;;;;;;16.28;7.35;;;;;;;-5.53;59.00;100343.69;359409;110;1961990;-75
2020/12/09 01:25:04;;;;;;;14.83;7.06;;;;;;;-5.54;58.96;100348.11;320636;106;2167992;-76
2020/12/09 01:26:11;;;;;;;14.27;7.10;;;;;;;-5.53;58.99;100343.69;346406;108;2412018;-75
2020/12/09 01:27:22;;;;;;;18.74;7.08;;;;;;;-5.56;58.74;100341.23;361142;109;1961937;-75
2020/12/09 01:28:28;;;;;;;16.66;6.64;;;;;;;-5.57;58.68;100342.18;363440;108;1962983;-74
2020/12/09 01:29:33;;;;;;;16.04;6.84;;;;;;;-5.58;58.84;100337.86;344061;108;2494932;-74
2020/12/09 01:30:40;;;;;;;15.28;7.07;;;;;;;-5.60;58.72;100345.83;365929;108;1961992;-74
2020/12/09 01:31:47;;;;;;;14.60;7.09;;;;;;;-5.58;58.95;100349.23;364753;110;1961951;-75
2020/12/09 01:32:55;;;;;;;16.64;7.78;;;;;;;-5.55;59.02;100342.95;367059;108;1964006;-74
2020/12/09 01:34:00;;;;;;;14.86;6.67;;;;;;;-5.53;58.97;100347.19;342192;109;2467003;-74
2020/12/09 01:35:06;;;;;;;17.98;8.07;;;;;;;-5.47;59.00;100350.42;351481;108;1961980;-74
2020/12/09 01:36:22;;;;;;;15.20;7.81;;;;;;;-5.44;58.71;100347.60;366635;110;1960919;-74
2020/12/09 01:37:27;;;;;;;15.53;7.43;;;;;;;-5.43;58.71;100349.29;366271;108;1961935;-74
2020/12/09 01:38:32;;;;;;;18.73;9.56;;;;;;;-5.41;58.85;100343.00;354964;108;2249014;-74
2020/12/09 01:39:38;;;;;;;14.43;7.32;;;;;;;-5.40;58.74;100349.98;345385;108;1961924;-74
2020/12/09 01:40:46;;;;;;;18.18;7.86;;;;;;;-5.35;58.74;100347.91;322403;107;2813962;-74
2020/12/09 01:41:52;;;;;;;15.98;7.44;;;;;;;-5.30;58.58;100353.76;356406;105;1961920;-75
2020/12/09 01:42:58;;;;;;;17.18;7.57;;;;;;;-5.27;58.68;100357.16;354848;112;1962045;-74
2020/12/09 01:44:04;;;;;;;14.93;7.45;;;;;;;-5.24;58.20;100359.61;324424;109;2463208;-75
2020/12/09 01:45:09;;;;;;;15.36;7.76;;;;;;;-5.22;58.53;100353.33;341308;110;1960999;-74
2020/12/09 01:46:16;;;;;;;18.45;7.98;;;;;;;-5.18;58.25;100357.48;366309;109;1961982;-75
2020/12/09 01:47:22;;;;;;;16.18;7.18;;;;;;;-5.16;58.37;100358.26;354882;108;2246001;-75
2020/12/09 01:48:27;;;;;;;14.92;7.28;;;;;;;-5.14;58.19;100356.36;353015;108;1963903;-75
2020/12/09 01:49:34;;;;;;;16.66;6.99;;;;;;;-5.10;58.27;100354.42;364980;108;1961901;-74
2020/12/09 01:50:41;;;;;;;14.84;8.00;;;;;;;-5.09;58.37;100356.94;365434;108;1962015;-75
2020/12/09 01:51:48;;;;;;;15.62;7.15;;;;;;;-5.07;58.14;100358.66;366340;108;1961898;-74
2020/12/09 01:52:54;;;;;;;16.28;8.16;;;;;;;-5.06;58.29;100357.70;347003;108;2366021;-74
2020/12/09 01:54:00;;;;;;;16.65;7.73;;;;;;;-5.06;57.78;100355.08;365527;108;1961941;-75
2020/12/09 01:55:05;;;;;;;17.95;8.67;;;;;;;-5.03;57.96;100357.52;367222;108;1961864;-75
2020/12/09 01:56:11;;;;;;;19.43;7.62;;;;;;;-5.02;58.01;100359.24;320151;108;2244660;-75
2020/12/09 01:57:16;;;;;;;17.36;7.97;;;;;;;-5.00;58.12;100354.70;363228;108;1964022;-75
2020/12/09 01:58:22;;;;;;;16.67;8.31;;;;;;;-4.98;57.92;100363.38;365662;108;1960707;-75
2020/12/09 01:59:28;;;;;;;18.42;7.54;;;;;;;-4.97;57.98;100357.19;364653;109;1961973;-75
2020/12/09 02:00:35;;;;;;;20.75;8.39;;;;;;;-4.95;58.06;100364.06;358656;111;1964131;-75
2020/12/09 02:01:41;;;;;;;16.77;8.36;;;;;;;-4.91;58.13;100362.09;366272;109;1961993;-75
2020/12/09 02:02:46;;;;;;;17.29;8.70;;;;;;;-4.89;58.20;100361.06;340574;109;2488951;-75
2020/12/09 02:03:52;;;;;;;19.03;8.85;;;;;;;-4.87;57.88;100358.31;351478;111;1962007;-75
2020/12/09 02:04:58;;;;;;;16.15;7.89;;;;;;;-4.84;57.85;100362.55;364915;109;1962008;-75
2020/12/09 02:06:05;;;;;;;23.12;8.68;;;;;;;-4.82;58.09;100363.32;367589;104;1961947;-74
2020/12/09 02:07:10;;;;;;;18.12;8.14;;;;;;;-4.78;58.04;100363.06;346177;114;1961935;-75
2020/12/09 02:08:22;;;;;;;18.06;8.72;;;;;;;-4.76;58.06;100361.19;358061;110;1963942;-75
2020/12/09 02:09:27;;;;;;;16.29;7.83;;;;;;;-4.75;57.47;100359.39;323337;117;2234027;-74
2020/12/09 02:10:33;;;;;;;16.50;7.89;;;;;;;-4.73;57.87;100368.06;346828;115;1961976;-74
2020/12/09 02:11:38;;;;;;;18.67;7.66;;;;;;;-4.72;57.91;100360.05;340530;118;1962040;-75
2020/12/09 02:12:44;;;;;;;16.16;7.67;;;;;;;-4.69;57.62;100361.66;338733;117;1964990;-75
2020/12/09 02:13:49;;;;;;;19.82;9.17;;;;;;;-4.67;57.58;100359.78;312817;116;2637006;-75
2020/12/09 02:14:56;;;;;;;20.08;8.33;;;;;;;-4.67;57.78;100360.62;351562;115;1965973;-74
2020/12/09 02:16:02;;;;;;;16.34;8.19;;;;;;;-4.66;57.77;100370.25;338005;119;1962954;-75
2020/12/09 02:17:08;;;;;;;17.07;7.92;;;;;;;-4.65;57.78;100361.39;305090;117;2125816;-74
2020/12/09 02:18:24;;;;;;;15.27;7.88;;;;;;;-4.62;57.75;100365.63;350725;115;1962001;-75
2020/12/09 02:19:30;;;;;;;14.48;7.46;;;;;;;-4.59;57.59;100367.23;351206;113;1961998;-74
2020/12/09 02:20:36;;;;;;;19.21;8.30;;;;;;;-4.60;57.41;100370.79;340311;115;1961900;-74
2020/12/09 02:21:41;;;;;;;16.81;8.62;;;;;;;-4.62;57.46;100364.78;348401;115;1962043;-74
2020/12/09 02:22:52;;;;;;;18.72;8.31;;;;;;;-4.61;57.62;100354.12;345802;117;1961010;-74
2020/12/09 02:23:58;;;;;;;16.22;8.28;;;;;;;-4.60;57.67;100358.48;329811;115;2864931;-73
2020/12/09 02:25:04;;;;;;;19.64;9.03;;;;;;;-4.60;57.59;100366.39;343833;115;1962114;-74
2020/12/09 02:26:10;;;;;;;16.83;8.96;;;;;;;-4.59;57.52;100354.05;342909;117;1961982;-74
2020/12/09 02:27:26;;;;;;;19.30;9.66;;;;;;;-4.56;57.66;100354.70;325149;117;2420956;-74
2020/12/09 02:28:31;;;;;;;17.09;8.41;;;;;;;-4.54;57.61;100355.47;350194;115;1961984;-74
2020/12/09 02:29:37;;;;;;;21.28;9.28;;;;;;;-4.53;57.64;100354.52;361130;106;1960854;-75
2020/12/09 02:30:43;;;;;;;17.09;9.36;;;;;;;-4.51;57.49;100357.91;328248;107;2936950;-75
2020/12/09 02:31:49;;;;;;;17.78;8.62;;;;;;;-4.48;57.43;100355.09;349189;104;1962764;-74
2020/12/09 02:32:55;;;;;;;15.12;7.82;;;;;;;-4.48;57.34;100349.81;361173;109;1964071;-74
2020/12/09 02:34:02;;;;;;;16.22;7.98;;;;;;;-4.47;57.45;100353.33;328385;109;2689028;-74
2020/12/09 02:35:08;;;;;;;16.41;8.33;;;;;;;-4.47;57.33;100361.23;357833;109;1963981;-74
2020/12/09 02:36:14;;;;;;;19.74;8.28;;;;;;;-4.49;57.47;100363.11;359356;111;1962035;-74
2020/12/09 02:37:19;;;;;;;20.46;9.97;;;;;;;-4.48;57.55;100355.09;346958;111;2266928;-75
2020/12/09 02:38:25;;;;;;;18.94;8.77;;;;;;;-4.48;57.43;100351.61;339018;111;1961916;-74
2020/12/09 02:39:36;;;;;;;16.58;8.16;;;;;;;-4.48;57.34;100355.09;354511;113;1961903;-74
2020/12/09 02:40:43;;;;;;;19.70;9.72;;;;;;;-4.45;57.47;100360.17;354434;111;1962067;-74
2020/12/09 02:41:48;;;;;;;17.69;8.67;;;;;;;-4.44;57.49;100359.25;351164;113;1962026;-74
2020/12/09 02:42:54;;;;;;;17.51;8.47;;;;;;;-4.45;57.22;100357.53;350427;114;1963050;-75
2020/12/09 02:44:00;;;;;;;19.08;8.22;;;;;;;-4.46;57.44;100353.21;325895;111;2659032;-75
2020/12/09 02:45:05;;;;;;;19.12;8.38;;;;;;;-4.44;57.44;100358.41;354675;111;1962957;-75
2020/12/09 02:46:12;;;;;;;16.88;8.74;;;;;;;-4.43;57.37;100354.81;350277;114;1963036;-75
2020/12/09 02:47:18;;;;;;;20.09;9.31;;;;;;;-4.44;57.32;100355.77;343929;111;2297044;-75
2020/12/09 02:48:23;;;;;;;18.47;9.30;;;;;;;-4.44;57.53;100356.61;334268;114;1961961;-75
2020/12/09 02:49:39;;;;;;;15.38;8.41;;;;;;;-4.42;57.64;100362.64;348443;114;1962089;-75
2020/12/09 02:50:46;;;;;;;21.02;8.68;;;;;;;-4.40;57.57;100362.53;329479;112;2882022;-77
2020/12/09 02:51:53;;;;;;;16.91;7.67;;;;;;;-4.37;57.60;100361.50;353472;113;1961879;-77
2020/12/09 02:52:59;;;;;;;17.11;9.02;;;;;;;-4.37;57.49;100367.62;349445;115;1962948;-76
2020/12/09 02:54:15;;;;;;;19.70;8.97;;;;;;;-4.38;57.26;100357.18;333190;113;1961987;-76
2020/12/09 02:55:22;;;;;;;17.71;8.47;;;;;;;-4.39;57.46;100364.25;366680;109;1961016;-75
2020/12/09 02:56:29;;;;;;;14.38;8.10;;;;;;;-4.39;57.41;100366.02;369808;107;1962022;-75
2020/12/09 02:57:35;;;;;;;18.54;8.94;;;;;;;-4.39;57.57;100366.02;371888;107;1960963;-75
2020/12/09 02:58:41;;;;;;;16.87;8.74;;;;;;;-4.38;57.55;100371.20;351811;107;2348917;-75
2020/12/09 02:59:46;;;;;;;17.01;8.99;;;;;;;-4.38;57.42;100376.48;358731;107;1962981;-75
2020/12/09 03:00:53;;;;;;;17.14;8.16;;;;;;;-4.40;57.56;100373.08;369247;107;1961891;-75
2020/12/09 03:01:59;;;;;;;16.39;8.69;;;;;;;-4.40;57.71;100373.08;349201;107;2188007;-76
2020/12/09 03:03:04;;;;;;;16.58;8.49;;;;;;;-4.37;57.71;100370.25;371045;107;1961971;-76
2020/12/09 03:04:10;;;;;;;19.33;7.84;;;;;;;-4.37;57.66;100367.62;368846;107;1961987;-76
2020/12/09 03:05:15;;;;;;;17.41;8.41;;;;;;;-4.35;57.73;100376.30;369357;107;1962003;-76
2020/12/09 03:06:21;;;;;;;17.52;8.63;;;;;;;-4.34;57.76;100378.00;334611;107;2056452;-75
2020/12/09 03:07:27;;;;;;;17.58;9.17;;;;;;;-4.31;57.59;100372.54;359516;110;1962980;-74
2020/12/09 03:08:43;;;;;;;17.01;8.57;;;;;;;-4.33;57.38;100376.21;360898;110;1961971;-74
2020/12/09 03:09:49;;;;;;;18.56;8.91;;;;;;;-4.33;57.65;100371.78;344451;111;2256908;-75
2020/12/09 03:11:05;;;;;;;17.72;8.92;;;;;;;-4.31;57.71;100374.30;350928;113;1961933;-75
2020/12/09 03:12:11;;;;;;;19.83;8.93;;;;;;;-4.28;57.69;100379.42;358412;109;1960971;-74
2020/12/09 03:13:17;;;;;;;17.80;8.49;;;;;;;-4.28;57.65;100374.14;355625;105;2221061;-87
2020/12/09 03:14:26;;;;;;;15.19;7.82;;;;;;;-4.27;57.46;100375.83;358088;104;1960729;31
2020/12/09 03:15:31;;;;;;;17.81;8.49;;;;;;;-4.30;57.61;100379.50;342352;110;1960750;-74
2020/12/09 03:16:38;;;;;;;19.32;9.79;;;;;;;-4.28;57.69;100369.70;358388;111;1960703;-74
2020/12/09 03:17:44;;;;;;;16.27;8.08;;;;;;;-4.28;57.64;100379.42;343216;108;2545869;-74
2020/12/09 03:18:49;;;;;;;20.89;8.89;;;;;;;-4.27;57.73;100374.03;368030;106;1960820;-74
2020/12/09 03:19:55;;;;;;;18.43;8.87;;;;;;;-4.25;57.65;100376.59;367907;108;1961860;-75
2020/12/09 03:21:00;;;;;;;17.25;8.08;;;;;;;-4.25;57.66;100376.59;358665;110;1961012;-75
2020/12/09 03:22:06;;;;;;;19.81;10.23;;;;;;;-4.27;57.58;100381.10;342843;110;2215019;-74
2020/12/09 03:23:12;;;;;;;23.19;8.10;;;;;;;-4.28;57.68;100377.62;358848;110;1961803;-75
2020/12/09 03:24:18;;;;;;;20.01;8.97;;;;;;;-4.26;57.86;100383.66;359116;107;1960955;-74
2020/12/09 03:25:24;;;;;;;17.97;9.25;;;;;;;-4.22;57.82;100373.75;344885;109;2447084;-75
2020/12/09 03:26:31;;;;;;;19.34;10.09;;;;;;;-4.21;57.64;100365.77;358460;111;1960943;-77
2020/12/09 03:27:38;;;;;;;21.19;9.18;;;;;;;-4.23;57.46;100375.55;358803;111;1962055;-75
2020/12/09 03:28:44;;;;;;;18.56;9.20;;;;;;;-4.24;57.56;100367.72;363312;110;1960929;-74
2020/12/09 03:29:50;;;;;;;23.62;10.66;;;;;;;-4.23;57.68;100375.55;362141;110;1964872;-75
2020/12/09 03:30:57;;;;;;;19.22;9.17;;;;;;;-4.24;57.68;100375.63;362497;111;1961989;-75
2020/12/09 03:32:04;;;;;;;20.66;10.37;;;;;;;-4.22;57.76;100371.12;364189;110;1960952;-74
2020/12/09 03:33:09;;;;;;;18.36;9.08;;;;;;;-4.23;57.77;100375.55;329382;110;2202985;-75
2020/12/09 03:34:15;;;;;;;23.14;10.54;;;;;;;-4.24;57.83;100371.20;357826;110;1961831;-75
2020/12/09 03:35:20;;;;;;;21.09;9.64;;;;;;;-4.28;57.95;100363.59;361399;110;1962094;-75
2020/12/09 03:36:27;;;;;;;18.26;9.47;;;;;;;-4.30;58.03;100374.22;353695;111;1962102;-75
2020/12/09 03:37:32;;;;;;;18.30;9.38;;;;;;;-4.28;58.19;100369.70;343298;111;1965889;-75
2020/12/09 03:38:38;;;;;;;23.18;10.42;;;;;;;-4.26;58.09;100373.11;361265;110;1961939;-76
2020/12/09 03:39:44;;;;;;;19.23;10.14;;;;;;;-4.24;58.08;100371.20;360171;110;1962904;-76
2020/12/09 03:40:50;;;;;;;20.93;10.48;;;;;;;-4.21;58.11;100372.80;324566;110;2210930;-74
2020/12/09 03:41:55;;;;;;;21.32;9.98;;;;;;;-4.20;58.00;100353.41;360551;110;1960914;-76
2020/12/09 03:43:02;;;;;;;19.78;10.56;;;;;;;-4.18;58.01;100355.94;362472;110;1963977;-76
2020/12/09 03:44:07;;;;;;;19.36;9.68;;;;;;;-4.21;58.10;100362.25;332408;111;2532051;-76
2020/12/09 03:45:12;;;;;;;22.61;11.17;;;;;;;-4.20;58.13;100361.33;331372;113;1962078;-77
2020/12/09 03:46:18;;;;;;;27.62;9.50;;;;;;;-4.18;58.29;100369.13;358949;111;1962054;-75
2020/12/09 03:47:24;;;;;;;24.61;11.06;;;;;;;-4.15;58.27;100358.38;363317;110;1961987;-76
2020/12/09 03:48:29;;;;;;;19.00;9.24;;;;;;;-4.14;58.29;100358.30;335013;105;2556944;-75
2020/12/09 03:49:35;;;;;;;20.41;9.75;;;;;;;-4.13;58.29;100348.59;358176;108;1964957;-73
2020/12/09 03:50:42;;;;;;;18.88;8.66;;;;;;;-4.09;58.13;100352.75;372596;107;1960768;-75
2020/12/09 03:51:47;;;;;;;20.78;10.16;;;;;;;-4.06;58.00;100357.83;347958;107;2482080;-75
2020/12/09 03:52:53;;;;;;;19.90;9.36;;;;;;;-4.07;58.03;100359.63;372938;107;1961905;-74
2020/12/09 03:54:00;;;;;;;22.32;9.68;;;;;;;-4.10;58.09;100356.31;373225;107;1962941;-74
2020/12/09 03:55:05;;;;;;;20.52;10.17;;;;;;;-4.11;58.27;100357.27;362512;107;2207976;-74
2020/12/09 03:56:11;;;;;;;20.87;10.08;;;;;;;-4.13;58.33;100353.86;370662;107;1963972;-74
2020/12/09 03:57:17;;;;;;;24.84;10.34;;;;;;;-4.12;58.34;100358.22;371693;107;1962043;-74
2020/12/09 03:58:22;;;;;;;21.31;10.99;;;;;;;-4.12;58.33;100352.94;371539;107;1961993;-74
2020/12/09 03:59:27;;;;;;;21.90;10.20;;;;;;;-4.13;58.41;100354.70;350960;107;2418917;-74
2020/12/09 04:00:34;;;;;;;19.56;9.61;;;;;;;-4.15;58.49;100361.02;362682;109;1961990;-74
2020/12/09 04:01:39;;;;;;;22.28;10.08;;;;;;;-4.14;58.62;100354.82;362197;109;1961903;-74
2020/12/09 04:02:45;;;;;;;19.17;9.17;;;;;;;-4.12;58.58;100345.03;370980;107;1960984;-74
2020/12/09 04:03:51;;;;;;;19.43;10.47;;;;;;;-4.11;58.59;100344.07;355526;107;1960790;-74
2020/12/09 04:04:56;;;;;;;23.66;10.86;;;;;;;-4.10;58.54;100348.39;370785;107;1962991;-74
2020/12/09 04:06:13;;;;;;;19.46;10.12;;;;;;;-4.09;58.52;100342.19;372128;107;1962899;-74
2020/12/09 04:07:18;;;;;;;20.18;9.53;;;;;;;-4.11;58.60;100347.55;316036;112;2184577;-74
2020/12/09 04:08:23;;;;;;;19.65;10.47;;;;;;;-4.11;58.73;100341.44;366394;110;1962037;-74
2020/12/09 04:09:29;;;;;;;19.63;10.84;;;;;;;-4.09;58.71;100342.19;368477;109;1962027;-74
2020/12/09 04:10:35;;;;;;;21.22;10.03;;;;;;;-4.13;58.80;100341.52;343029;109;2854900;-74
2020/12/09 04:11:41;;;;;;;20.51;10.39;;;;;;;-4.12;58.77;100345.03;361960;108;1962925;-74
2020/12/09 04:12:46;;;;;;;21.26;9.36;;;;;;;-4.14;58.88;100342.47;365052;110;1961908;-74
2020/12/09 04:13:52;;;;;;;21.66;10.08;;;;;;;-4.15;58.96;100350.47;365899;109;1961931;-74
2020/12/09 04:14:58;;;;;;;21.25;9.91;;;;;;;-4.12;58.93;100343.23;339275;109;2553947;-74
2020/12/09 04:16:03;;;;;;;20.47;9.92;;;;;;;-4.09;58.95;100350.11;350422;110;1963969;-74
2020/12/09 04:17:08;;;;;;;21.84;9.19;;;;;;;-4.09;58.96;100350.95;365715;108;1961970;-74
2020/12/09 04:18:13;;;;;;;18.72;10.26;;;;;;;-4.10;59.01;100349.27;366638;110;1962069;-74
2020/12/09 04:19:19;;;;;;;20.73;10.51;;;;;;;-4.10;59.13;100349.27;366256;110;1961996;-74
2020/12/09 04:20:38;;;;;;;19.24;10.16;;;;;;;-4.08;59.06;100352.63;343152;110;1961908;-75
2020/12/09 04:21:44;;;;;;;22.36;10.83;;;;;;;-4.07;59.05;100350.87;337995;114;2191034;-74
2020/12/09 04:22:49;;;;;;;21.56;10.81;;;;;;;-4.07;59.13;100349.07;337276;112;1962077;-74
2020/12/09 04:23:54;;;;;;;20.50;10.02;;;;;;;-4.09;59.22;100355.38;350245;112;1961960;-74
2020/12/09 04:25:00;;;;;;;20.88;9.07;;;;;;;-4.10;59.26;100343.12;350633;114;1963016;-74
2020/12/09 04:26:06;;;;;;;17.78;9.88;;;;;;;-4.07;59.23;100348.23;337201;114;2235963;-75
2020/12/09 04:27:11;;;;;;;20.77;9.70;;;;;;;-4.11;59.28;100346.70;348650;114;1962926;-75
2020/12/09 04:28:17;;;;;;;21.00;10.12;;;;;;;-4.09;59.26;100348.31;347735;114;1961018;-75
2020/12/09 04:29:23;;;;;;;22.38;10.46;;;;;;;-4.10;59.31;100351.03;357490;108;1962757;-76
2020/12/09 04:30:29;;;;;;;32.45;11.17;;;;;;;-4.12;59.41;100345.87;362594;110;1963094;-75
2020/12/09 04:31:35;;;;;;;21.43;10.22;;;;;;;-4.09;59.42;100347.47;354759;113;1961868;-76
2020/12/09 04:32:42;;;;;;;23.43;10.94;;;;;;;-4.10;59.47;100348.39;342898;111;2873367;-76
2020/12/09 04:33:53;;;;;;;22.06;10.72;;;;;;;-4.13;59.54;100349.43;336866;111;1962017;-75
2020/12/09 04:34:59;;;;;;;21.29;10.71;;;;;;;-4.14;59.61;100350.39;353100;112;1960915;-76
2020/12/09 04:36:07;;;;;;;22.42;10.75;;;;;;;-4.14;59.72;100345.11;308398;112;2875976;-76
2020/12/09 04:37:13;;;;;;;20.39;10.51;;;;;;;-4.11;59.61;100347.55;354229;113;1961941;-76
2020/12/09 04:38:19;;;;;;;25.21;11.53;;;;;;;-4.11;59.62;100347.55;322944;111;2052631;-76
2020/12/09 04:39:24;;;;;;;24.68;10.29;;;;;;;-4.14;59.72;100342.47;356170;111;1961950;-75
2020/12/09 04:40:32;;;;;;;24.24;10.94;;;;;;;-4.14;59.73;100341.63;328512;111;2529971;-76
2020/12/09 04:41:37;;;;;;;24.49;10.33;;;;;;;-4.13;59.65;100353.86;347153;111;1960932;-76
2020/12/09 04:43:00;;;;;;;25.02;11.02;;;;;;;-4.15;59.93;100351.34;357635;111;1961973;-76
2020/12/09 04:44:06;;;;;;;19.61;10.39;;;;;;;-4.16;59.95;100351.42;358707;111;1962931;-76
2020/12/09 04:45:11;;;;;;;18.99;9.89;;;;;;;-4.13;59.95;100349.43;355597;113;1962045;-78
2020/12/09 04:46:19;;;;;;;19.56;10.02;;;;;;;-4.16;60.11;100349.63;312331;111;2884025;-76
2020/12/09 04:47:27;;;;;;;31.77;11.58;;;;;;;-4.16;59.98;100349.63;356763;111;1962028;-76
2020/12/09 04:48:39;;;;;;;22.09;10.80;;;;;;;-4.13;60.02;100356.50;345340;111;1960899;-76
2020/12/09 04:49:48;;;;;;;24.14;10.74;;;;;;;-4.16;60.20;100352.27;332970;111;2889080;-77
2020/12/09 04:51:07;;;;;;;20.29;10.04;;;;;;;-4.15;60.14;100356.62;356737;103;1962048;-77
2020/12/09 04:52:28;;;;;;;20.20;9.76;;;;;;;-4.14;60.17;100360.94;350027;115;1961908;-77
2020/12/09 04:53:34;;;;;;;19.83;10.80;;;;;;;-4.16;60.24;100364.61;339195;114;2227014;-77
2020/12/09 04:54:42;;;;;;;22.82;10.75;;;;;;;-4.15;60.30;100355.74;358776;111;1961954;-78
2020/12/09 04:55:53;;;;;;;23.30;12.22;;;;;;;-4.16;60.39;100367.25;320218;111;2092340;-77
2020/12/09 04:57:03;;;;;;;23.70;11.36;;;;;;;-4.17;60.40;100352.37;354669;113;1961873;-77
2020/12/09 04:58:12;;;;;;;19.66;10.82;;;;;;;-4.16;60.60;100354.90;354209;113;1969964;-77
2020/12/09 04:59:21;;;;;;;24.20;10.84;;;;;;;-4.16;60.60;100360.17;353712;113;1963933;-77
2020/12/09 05:00:30;;;;;;;23.19;11.93;;;;;;;-4.14;60.61;100354.82;354235;113;1963982;-77